createdAt,value
2019-05-17T00:01:33.731Z,17.50
2019-05-17T00:04:13.454Z,18.20
2019-05-17T00:06:51.260Z,18.10
2019-05-17T00:12:04.432Z,18.00
2019-05-17T00:14:42.008Z,18.10
2019-05-17T00:19:57.316Z,18.40
2019-05-17T00:22:37.240Z,18.60
2019-05-17T00:27:50.471Z,18.60
2019-05-17T00:33:04.393Z,18.80
2019-05-17T00:35:46.870Z,18.80
2019-05-17T00:38:27.219Z,18.90
2019-05-17T00:41:03.643Z,18.90
2019-05-17T00:43:41.405Z,19.10
2019-05-17T00:48:57.284Z,19.80
2019-05-17T00:51:36.718Z,19.20
2019-05-17T00:54:13.919Z,19.30
2019-05-17T00:56:56.533Z,19.50
2019-05-17T00:59:36.875Z,19.80
2019-05-17T01:02:13.733Z,19.90
2019-05-17T01:04:51.444Z,19.70
2019-05-17T01:07:34.302Z,19.80
2019-05-17T01:10:13.551Z,19.90
2019-05-17T01:12:51.168Z,19.80
2019-05-17T01:15:29.055Z,20.10
2019-05-17T01:18:07.314Z,20.30
2019-05-17T01:20:47.584Z,20.20
2019-05-17T01:23:27.665Z,20.30
2019-05-17T01:26:07.597Z,20.60
2019-05-17T01:28:46.747Z,20.50
2019-05-17T01:31:26.558Z,20.60
2019-05-17T01:34:07.397Z,20.60
2019-05-17T01:36:46.480Z,20.70
2019-05-17T01:39:26.883Z,20.70
2019-05-17T01:42:06.635Z,20.70
2019-05-17T01:44:43.443Z,20.80
2019-05-17T01:47:21.172Z,20.90
2019-05-17T01:52:36.992Z,20.50
2019-05-17T01:57:50.787Z,21.30
2019-05-17T02:00:28.720Z,21.60
2019-05-17T02:03:07.044Z,21.40
2019-05-17T02:05:47.207Z,21.40
2019-05-17T02:08:26.472Z,21.60
2019-05-17T02:11:06.869Z,21.70
2019-05-17T02:21:42.581Z,21.90
2019-05-17T02:24:20.231Z,21.60
2019-05-17T02:26:59.423Z,21.70
2019-05-17T02:32:14.303Z,21.70
2019-05-17T02:34:53.029Z,21.80
2019-05-17T02:40:08.788Z,21.90
2019-05-17T02:42:53.317Z,22.20
2019-05-17T02:45:32.696Z,22.30
2019-05-17T02:48:13.222Z,22.30
2019-05-17T02:50:53.013Z,22.20
2019-05-17T02:53:33.361Z,22.20
2019-05-17T02:56:12.994Z,22.00
2019-05-17T02:58:53.033Z,22.10
2019-05-17T03:01:28.359Z,22.00
2019-05-17T03:04:12.830Z,22.00
2019-05-17T03:06:53.253Z,22.20
2019-05-17T03:09:33.291Z,22.60
2019-05-17T03:12:12.892Z,22.80
2019-05-17T03:14:52.873Z,23.20
2019-05-17T03:17:33.824Z,23.40
2019-05-17T03:20:12.901Z,23.50
2019-05-17T03:22:54.379Z,23.60
2019-05-17T03:25:43.907Z,23.80
2019-05-17T03:28:23.589Z,23.50
2019-05-17T03:31:07.968Z,23.80
2019-05-17T03:33:45.990Z,23.80
2019-05-17T03:38:56.205Z,24.70
2019-05-17T03:41:37.835Z,24.40
2019-05-17T03:44:16.888Z,24.30
2019-05-17T03:52:13.585Z,24.30
2019-05-17T03:54:53.262Z,24.70
2019-05-17T03:57:32.572Z,24.40
2019-05-17T04:08:15.349Z,24.40
2019-05-17T04:10:55.158Z,24.70
2019-05-17T04:13:33.836Z,24.80
2019-05-17T04:16:13.911Z,24.90
2019-05-17T04:18:53.465Z,24.90
2019-05-17T04:21:34.158Z,25.00
2019-05-17T04:24:12.728Z,25.10
2019-05-17T04:26:52.617Z,25.10
2019-05-17T04:29:32.884Z,25.20
2019-05-17T04:32:09.009Z,25.20
2019-05-17T04:34:46.959Z,25.20
2019-05-17T04:37:26.123Z,25.20
2019-05-17T04:40:04.026Z,25.20
2019-05-17T04:42:44.666Z,25.10
2019-05-17T04:45:28.322Z,25.10
2019-05-17T04:48:09.231Z,25.00
2019-05-17T04:50:48.248Z,25.00
2019-05-17T04:53:28.486Z,25.00
2019-05-17T04:56:08.113Z,25.10
2019-05-17T04:58:45.732Z,25.10
2019-05-17T05:01:24.899Z,25.00
2019-05-17T05:04:03.429Z,25.10
2019-05-17T05:06:43.652Z,25.10
2019-05-17T05:09:22.908Z,25.20
2019-05-17T05:12:04.672Z,25.20
2019-05-17T05:14:37.594Z,25.20
2019-05-17T05:17:15.503Z,25.20
2019-05-17T05:19:54.495Z,25.10
2019-05-17T05:22:32.958Z,25.10
2019-05-17T05:25:12.362Z,25.10
2019-05-17T05:27:51.677Z,24.90
2019-05-17T05:30:31.842Z,25.10
2019-05-17T05:33:08.471Z,25.30
2019-05-17T05:35:46.121Z,25.30
2019-05-17T05:38:24.127Z,25.20
2019-05-17T05:41:02.095Z,25.50
2019-05-17T05:43:41.983Z,25.40
2019-05-17T05:46:22.248Z,25.40
2019-05-17T05:49:12.195Z,25.30
2019-05-17T05:51:48.794Z,25.40
2019-05-17T05:54:26.530Z,25.40
2019-05-17T05:57:04.209Z,25.20
2019-05-17T05:59:43.807Z,25.30
2019-05-17T06:02:21.892Z,25.40
2019-05-17T06:05:01.739Z,25.10
2019-05-17T06:07:38.425Z,25.20
2019-05-17T06:10:16.881Z,25.10
2019-05-17T06:12:56.160Z,25.10
2019-05-17T06:15:33.950Z,25.20
2019-05-17T06:18:12.986Z,25.20
2019-05-17T06:20:52.307Z,25.10
2019-05-17T06:23:31.671Z,25.10
2019-05-17T06:26:12.483Z,25.00
2019-05-17T06:28:56.504Z,24.80
2019-05-17T06:34:11.636Z,23.70
2019-05-17T06:36:49.357Z,24.10
2019-05-17T06:39:29.038Z,23.80
2019-05-17T06:55:12.817Z,22.50
2019-05-17T06:57:52.821Z,22.50
2019-05-17T07:00:31.682Z,22.40
2019-05-17T07:03:09.758Z,22.30
2019-05-17T07:05:50.168Z,22.20
2019-05-17T07:08:31.818Z,22.30
2019-05-17T07:11:10.481Z,22.00
2019-05-17T07:13:49.617Z,22.10
2019-05-17T07:16:27.342Z,22.00
2019-05-17T07:21:40.882Z,21.90
2019-05-17T07:24:19.605Z,21.80
2019-05-17T07:26:59.116Z,21.70
2019-05-17T07:29:40.182Z,21.70
2019-05-17T07:32:16.736Z,21.70
2019-05-17T07:34:55.724Z,21.70
2019-05-17T07:37:34.593Z,21.60
2019-05-17T07:40:12.594Z,21.60
2019-05-17T07:42:50.271Z,21.60
2019-05-17T07:45:29.552Z,21.60
2019-05-17T07:48:10.368Z,21.70
2019-05-17T07:50:50.190Z,21.60
2019-05-17T07:53:26.721Z,21.60
2019-05-17T07:56:04.527Z,21.60
2019-05-17T07:58:44.069Z,21.60
2019-05-17T08:01:21.955Z,21.60
2019-05-17T08:04:00.670Z,21.50
2019-05-17T08:06:40.322Z,21.50
2019-05-17T08:09:20.322Z,21.50
2019-05-17T08:12:00.713Z,21.40
2019-05-17T08:14:40.018Z,21.40
2019-05-17T08:17:19.798Z,21.40
2019-05-17T08:19:57.084Z,21.30
2019-05-17T08:22:34.562Z,21.30
2019-05-17T08:25:12.986Z,21.30
2019-05-17T08:28:40.202Z,21.30
2019-05-17T08:31:30.280Z,21.30
2019-05-17T08:34:10.794Z,21.00
2019-05-17T08:36:50.618Z,21.20
2019-05-17T08:39:31.963Z,21.20
2019-05-17T08:42:10.976Z,21.10
2019-05-17T08:44:49.836Z,21.20
2019-05-17T08:47:30.282Z,21.10
2019-05-17T08:50:11.822Z,21.10
2019-05-17T08:52:49.628Z,21.10
2019-05-17T08:55:29.881Z,21.00
2019-05-17T08:58:10.002Z,21.10
2019-05-17T09:00:50.484Z,21.00
2019-05-17T09:03:30.440Z,21.00
2019-05-17T09:06:12.473Z,21.00
2019-05-17T09:08:51.611Z,20.90
2019-05-17T09:11:30.294Z,20.90
2019-05-17T09:14:10.316Z,20.90
2019-05-17T09:16:50.326Z,20.80
2019-05-17T09:19:27.215Z,20.80
2019-05-17T09:22:06.667Z,20.70
2019-05-17T09:24:45.684Z,20.90
2019-05-17T09:27:26.654Z,20.80
2019-05-17T09:30:04.367Z,20.80
2019-05-17T09:32:42.468Z,20.80
2019-05-17T09:35:23.687Z,20.70
2019-05-17T09:38:02.693Z,20.80
2019-05-17T09:40:42.706Z,20.80
2019-05-17T09:43:21.788Z,20.70
2019-05-17T09:46:01.597Z,20.70
2019-05-17T09:48:39.688Z,20.70
2019-05-17T09:51:20.849Z,20.60
2019-05-17T09:54:00.595Z,20.50
2019-05-17T09:56:39.621Z,20.40
2019-05-17T09:59:17.517Z,20.40
2019-05-17T10:01:55.262Z,20.40
2019-05-17T10:04:33.081Z,20.40
2019-05-17T10:07:13.927Z,20.40
2019-05-17T10:09:51.968Z,20.40
2019-05-17T10:12:33.863Z,20.40
2019-05-17T10:15:11.931Z,20.10
2019-05-17T10:17:49.673Z,20.00
2019-05-17T10:20:29.220Z,20.50
2019-05-17T10:23:10.511Z,19.70
2019-05-17T10:25:47.710Z,19.90
2019-05-17T10:28:25.513Z,19.90
2019-05-17T10:31:03.205Z,20.00
2019-05-17T10:33:42.959Z,19.90
2019-05-17T10:41:33.410Z,20.00
2019-05-17T10:44:12.674Z,19.60
2019-05-17T10:46:53.276Z,20.20
2019-05-17T10:52:09.471Z,19.40
2019-05-17T10:54:47.348Z,19.70
2019-05-17T10:57:26.428Z,19.50
2019-05-17T11:00:06.240Z,19.10
2019-05-17T11:02:47.913Z,19.30
2019-05-17T11:05:26.486Z,19.90
2019-05-17T11:08:04.175Z,19.60
2019-05-17T11:10:43.636Z,19.50
2019-05-17T11:13:21.896Z,19.40
2019-05-17T11:16:00.245Z,19.10
2019-05-17T11:18:40.953Z,19.50
2019-05-17T11:21:20.228Z,19.00
2019-05-17T11:26:38.099Z,19.20
2019-05-17T11:29:16.000Z,19.20
2019-05-17T11:31:54.759Z,19.30
2019-05-17T11:37:10.413Z,18.90
2019-05-17T11:39:51.649Z,18.90
2019-05-17T11:45:07.132Z,19.00
2019-05-17T11:50:20.904Z,18.90
2019-05-17T11:52:58.772Z,19.10
2019-05-17T11:55:38.602Z,18.70
2019-05-17T11:58:16.346Z,19.00
2019-05-17T12:00:54.236Z,19.50
2019-05-17T12:08:43.246Z,18.90
2019-05-17T12:11:22.198Z,18.50
2019-05-17T12:14:01.817Z,18.50
2019-05-17T12:16:39.738Z,18.50
2019-05-17T12:19:19.450Z,18.20
2019-05-17T12:21:57.145Z,18.50
2019-05-17T12:24:36.388Z,18.50
2019-05-17T12:29:54.227Z,18.80
2019-05-17T12:32:32.652Z,18.40
2019-05-17T12:35:10.688Z,18.40
2019-05-17T12:37:49.329Z,18.40
2019-05-17T12:40:39.708Z,18.30
2019-05-17T12:43:17.727Z,18.30
2019-05-17T12:46:01.104Z,18.10
2019-05-17T12:48:39.806Z,17.90
2019-05-17T12:51:20.828Z,18.30
2019-05-17T12:53:58.717Z,18.20
2019-05-17T12:56:37.640Z,18.20
2019-05-17T12:59:15.504Z,18.20
2019-05-17T13:01:53.177Z,18.20
2019-05-17T13:04:34.813Z,18.10
2019-05-17T13:07:13.808Z,18.10
2019-05-17T13:09:51.349Z,18.10
2019-05-17T13:12:29.041Z,18.10
2019-05-17T13:15:06.957Z,18.10
2019-05-17T13:17:45.871Z,17.90
2019-05-17T13:20:24.508Z,17.90
2019-05-17T13:23:02.242Z,18.70
2019-05-17T13:25:40.995Z,18.40
2019-05-17T13:28:21.746Z,18.00
2019-05-17T13:30:59.712Z,18.00
2019-05-17T13:33:39.787Z,17.80
2019-05-17T13:36:17.499Z,18.00
2019-05-17T13:41:32.144Z,17.60
2019-05-17T13:44:11.552Z,17.70
2019-05-17T13:46:51.954Z,17.70
2019-05-17T13:49:29.713Z,17.70
2019-05-17T13:52:10.469Z,17.80
2019-05-17T13:54:48.272Z,17.80
2019-05-17T13:57:25.942Z,17.90
2019-05-17T14:00:05.164Z,17.90
2019-05-17T14:02:42.823Z,17.80
2019-05-17T14:05:22.391Z,17.60
2019-05-17T14:08:02.519Z,17.10
2019-05-17T14:13:15.529Z,17.80
2019-05-17T14:15:53.356Z,17.40
2019-05-17T14:21:09.888Z,17.50
2019-05-17T14:26:24.692Z,17.30
2019-05-17T14:29:03.699Z,17.10
2019-05-17T14:31:43.301Z,17.50
2019-05-17T14:36:56.418Z,17.30
2019-05-17T14:42:11.050Z,17.20
2019-05-17T14:47:27.966Z,17.40
2019-05-17T14:50:05.732Z,17.10
2019-05-17T14:52:43.334Z,17.00
2019-05-17T14:55:21.027Z,17.10
2019-05-17T14:58:00.619Z,17.30
2019-05-17T15:00:40.098Z,16.90
2019-05-17T15:03:19.562Z,17.20
2019-05-17T15:05:57.173Z,17.50
2019-05-17T15:08:34.807Z,16.80
2019-05-17T15:11:15.027Z,17.10
2019-05-17T15:16:30.179Z,16.90
2019-05-17T15:19:07.910Z,17.10
2019-05-17T15:21:45.547Z,17.50
2019-05-17T15:24:23.382Z,17.20
2019-05-17T15:27:05.427Z,17.40
2019-05-17T15:32:17.662Z,17.30
2019-05-17T15:34:55.407Z,16.80
2019-05-17T15:37:33.284Z,16.90
2019-05-17T15:40:13.308Z,17.10
2019-05-17T15:42:53.003Z,17.20
2019-05-17T15:50:42.631Z,17.10
2019-05-17T15:53:20.784Z,16.80
2019-05-17T15:55:58.602Z,17.20
2019-05-17T15:58:38.324Z,17.10
2019-05-17T16:01:19.169Z,16.70
2019-05-17T16:03:58.687Z,16.90
2019-05-17T16:06:36.321Z,16.40
2019-05-17T16:09:19.382Z,16.80
2019-05-17T16:14:35.485Z,16.50
2019-05-17T16:17:13.240Z,17.10
2019-05-17T16:22:26.641Z,16.30
2019-05-17T16:25:06.866Z,16.70
2019-05-17T16:30:24.304Z,16.60
2019-05-17T16:38:12.785Z,16.50
2019-05-17T16:40:50.368Z,16.40
2019-05-17T16:43:27.967Z,16.50
2019-05-17T16:46:07.974Z,16.40
2019-05-17T16:48:45.799Z,16.50
2019-05-17T16:51:23.568Z,16.60
2019-05-17T16:59:13.423Z,16.50
2019-05-17T17:01:53.565Z,16.30
2019-05-17T17:04:32.880Z,16.30
2019-05-17T17:07:10.655Z,16.20
2019-05-17T17:09:48.259Z,16.30
2019-05-17T17:12:28.276Z,16.30
2019-05-17T17:15:06.147Z,15.80
2019-05-17T17:17:43.975Z,15.80
2019-05-17T17:20:28.710Z,16.00
2019-05-17T17:23:08.021Z,15.50
2019-05-17T17:25:46.955Z,16.20
2019-05-17T17:28:27.151Z,16.20
2019-05-17T17:31:09.957Z,15.80
2019-05-17T17:33:47.812Z,15.80
2019-05-17T17:36:27.853Z,15.60
2019-05-17T17:41:45.938Z,15.30
2019-05-17T17:44:23.738Z,15.90
2019-05-17T17:47:03.727Z,15.60
2019-05-17T17:49:42.790Z,15.80
2019-05-17T17:55:02.829Z,15.60
2019-05-17T17:57:41.500Z,15.20
2019-05-17T18:06:31.898Z,15.50
2019-05-17T18:11:48.821Z,15.40
2019-05-17T18:14:26.486Z,15.30
2019-05-17T18:17:07.287Z,15.30
2019-05-17T18:19:47.137Z,14.90
2019-05-17T18:22:24.821Z,15.20
2019-05-17T18:25:02.441Z,15.20
2019-05-17T18:27:42.604Z,15.20
2019-05-17T18:30:22.210Z,15.60
2019-05-17T18:33:00.020Z,15.20
2019-05-17T18:35:39.339Z,15.40
2019-05-17T18:38:17.793Z,15.30
2019-05-17T18:40:55.464Z,15.20
2019-05-17T18:43:33.407Z,15.40
2019-05-17T18:46:12.558Z,15.50
2019-05-17T18:48:53.389Z,14.80
2019-05-17T18:51:31.070Z,15.60
2019-05-17T18:54:11.351Z,14.70
2019-05-17T18:56:50.304Z,15.10
2019-05-17T18:59:27.880Z,15.20
2019-05-17T19:02:07.027Z,15.40
2019-05-17T19:04:46.550Z,15.10
2019-05-17T19:07:24.303Z,15.10
2019-05-17T19:10:05.427Z,15.10
2019-05-17T19:12:43.072Z,15.10
2019-05-17T19:15:21.025Z,15.10
2019-05-17T19:18:03.084Z,15.10
2019-05-17T19:20:40.853Z,15.10
2019-05-17T19:23:20.820Z,14.80
2019-05-17T19:25:59.848Z,15.10
2019-05-17T19:28:40.962Z,14.60
2019-05-17T19:31:20.681Z,14.90
2019-05-17T19:33:59.699Z,15.20
2019-05-17T19:36:37.302Z,14.60
2019-05-17T19:39:16.934Z,15.50
2019-05-17T19:41:54.504Z,14.60
2019-05-17T19:44:32.122Z,15.00
2019-05-17T19:47:12.184Z,15.00
2019-05-17T19:49:54.911Z,15.00
2019-05-17T19:52:33.954Z,15.00
2019-05-17T19:55:13.885Z,15.00
2019-05-17T19:57:51.569Z,14.90
2019-05-17T20:00:31.509Z,14.80
2019-05-17T20:03:11.063Z,14.80
2019-05-17T20:05:48.708Z,15.10
2019-05-17T20:08:26.354Z,15.10
2019-05-17T20:11:04.013Z,14.40
2019-05-17T20:16:18.259Z,14.50
2019-05-17T20:18:55.968Z,14.20
2019-05-17T20:21:35.181Z,14.20
2019-05-17T20:26:47.878Z,14.50
2019-05-17T20:29:25.545Z,14.70
2019-05-17T20:32:03.038Z,14.40
2019-05-17T20:34:40.768Z,14.70
2019-05-17T20:39:53.583Z,14.40
2019-05-17T20:42:36.660Z,15.00
2019-05-17T20:45:32.164Z,14.80
2019-05-17T20:47:57.996Z,14.50
2019-05-17T20:50:35.636Z,14.90
2019-05-17T20:53:19.082Z,14.60
2019-05-17T21:01:06.319Z,14.70
2019-05-17T21:03:45.194Z,14.60
2019-05-17T21:06:24.693Z,14.20
2019-05-17T21:11:41.465Z,14.50
2019-05-17T21:14:19.121Z,15.30
2019-05-17T21:16:56.756Z,14.70
2019-05-17T21:19:34.331Z,14.60
2019-05-17T21:22:12.089Z,14.70
2019-05-17T21:27:27.626Z,14.20
2019-05-17T21:30:06.465Z,14.90
2019-05-17T21:35:23.427Z,15.00
2019-05-17T21:38:02.776Z,14.50
2019-05-17T21:43:19.848Z,14.40
2019-05-17T21:46:03.620Z,14.80
2019-05-17T21:48:39.806Z,15.20
2019-05-17T21:53:52.551Z,14.90
2019-05-17T21:56:31.729Z,15.10
2019-05-17T21:59:12.228Z,15.40
2019-05-17T22:01:48.756Z,15.20
2019-05-17T22:04:28.287Z,15.20
2019-05-17T22:12:18.992Z,15.00
2019-05-17T22:14:58.300Z,15.80
2019-05-17T22:20:13.060Z,15.40
2019-05-17T22:25:29.508Z,15.50
2019-05-17T22:28:07.293Z,15.60
2019-05-17T22:30:44.993Z,15.40
2019-05-17T22:33:24.203Z,16.50
2019-05-17T22:36:03.425Z,15.70
2019-05-17T22:38:41.174Z,15.90
2019-05-17T22:41:18.756Z,15.90
2019-05-17T22:43:56.342Z,15.90
2019-05-17T22:46:36.412Z,16.00
2019-05-17T22:49:12.903Z,16.10
2019-05-17T22:51:50.470Z,16.10
2019-05-17T22:54:28.131Z,16.20
2019-05-17T22:57:05.795Z,16.20
